Time;durP1;ratioP1;P1;durP2;ratioP2;P2;SDS_P1;SDS_P2;PMS_P1;PMS_P2;Temp;Humidity;BMP_temperature;BMP_pressure;BME280_temperature;BME280_humidity;BME280_pressure;Samples;Min_cycle;Max_cycle;Signal;HPM_P1;HPM_P2
2023/05/22 00:01:36;;;;;;;21.45;14.45;;;15.10;99.90;;;14.48;100.00;96914.34;6099847;23;20413;-79
2023/05/22 00:04:02;;;;;;;18.75;13.48;;;15.10;99.90;;;14.46;100.00;96924.47;6100105;23;20385;-78
2023/05/22 00:06:28;;;;;;;21.40;13.33;;;15.10;99.90;;;14.44;100.00;96925.84;6100149;23;20374;-78
2023/05/22 00:08:54;;;;;;;20.75;13.57;;;15.10;99.90;;;14.42;100.00;96922.69;6100174;23;20718;-79
2023/05/22 00:11:21;;;;;;;18.00;13.27;;;15.00;99.90;;;14.39;100.00;96916.06;6100116;23;20378;-78
2023/05/22 00:13:48;;;;;;;20.77;13.68;;;15.00;99.90;;;14.40;100.00;96925.63;6100247;23;20849;-78
2023/05/22 00:16:14;;;;;;;20.30;14.13;;;15.00;99.90;;;14.44;100.00;96917.84;6100362;23;20457;-78
2023/05/22 00:18:41;;;;;;;19.55;13.30;;;15.00;99.90;;;14.35;100.00;96909.69;6100683;23;20370;-78
2023/05/22 00:21:07;;;;;;;20.20;13.53;;;15.00;99.90;;;14.33;100.00;96917.19;6074437;23;20441;-79
2023/05/22 00:23:33;;;;;;;21.85;13.85;;;14.90;99.90;;;14.31;100.00;96911.34;6100516;23;20680;-78
2023/05/22 00:26:00;;;;;;;23.10;14.38;;;14.90;99.90;;;14.29;100.00;96910.81;6100088;23;20740;-78
2023/05/22 00:28:27;;;;;;;20.30;14.03;;;14.90;99.90;;;14.24;100.00;96911.69;6074275;23;20842;-78
2023/05/22 00:30:54;;;;;;;17.90;13.45;;;14.90;99.90;;;14.22;100.00;96913.03;6099825;23;20381;-78
2023/05/22 00:33:20;;;;;;;20.02;14.57;;;14.80;99.90;;;14.17;100.00;96905.94;6074479;23;20847;-78
2023/05/22 00:35:46;;;;;;;22.08;14.57;;;14.80;99.90;;;14.15;100.00;96912.59;6099711;23;20374;-78
2023/05/22 00:38:29;;;;;;;24.20;13.82;;;14.80;99.90;;;14.11;100.00;96914.25;6100507;23;20803;-79
2023/05/22 00:40:55;;;;;;;25.83;13.88;;;14.70;99.90;;;14.12;100.00;96913.97;6100192;23;20704;-78
2023/05/22 00:43:21;;;;;;;18.90;13.85;;;14.70;99.90;;;14.08;100.00;96910.28;6097621;23;20390;-78
2023/05/22 00:45:47;;;;;;;20.90;14.05;;;14.70;99.90;;;14.07;100.00;96913.22;6099474;23;20834;-78
2023/05/22 00:48:14;;;;;;;22.42;14.07;;;14.70;99.90;;;14.04;100.00;96911.94;6099629;23;20378;-79
2023/05/22 00:50:42;;;;;;;20.73;13.68;;;14.70;99.90;;;14.01;100.00;96914.38;6075806;23;20378;-79
2023/05/22 00:53:09;;;;;;;18.73;14.13;;;14.60;99.90;;;14.00;100.00;96912.78;6074541;23;20379;-78
2023/05/22 00:55:35;;;;;;;24.23;15.32;;;14.60;99.90;;;13.96;100.00;96909.91;6099838;23;20375;-78
2023/05/22 00:58:06;;;;;;;20.90;14.18;;;14.60;99.90;;;13.99;100.00;96911.19;6100207;23;20382;-78
2023/05/22 01:00:33;;;;;;;22.33;14.27;;;14.60;99.90;;;13.96;100.00;96909.91;6100771;23;20398;-78
2023/05/22 01:03:00;;;;;;;22.88;13.48;;;14.60;99.90;;;13.91;100.00;96902.75;6099885;23;20457;-78
2023/05/22 01:05:27;;;;;;;19.13;13.98;;;14.60;99.90;;;13.87;100.00;96901.75;6100504;23;20374;-78
2023/05/22 01:07:53;;;;;;;22.02;13.90;;;14.50;99.90;;;13.86;100.00;96910.03;6100470;23;20375;-78
2023/05/22 01:10:19;;;;;;;21.93;14.47;;;14.50;99.90;;;13.83;100.00;96908.72;6099927;23;20439;-78
2023/05/22 01:12:54;;;;;;;20.38;15.13;;;14.50;99.90;;;13.80;100.00;96909.28;6100153;23;20367;-79
2023/05/22 01:15:30;;;;;;;26.33;15.05;;;14.40;99.90;;;13.75;100.00;96913.88;6100650;23;20366;-78
2023/05/22 01:18:09;;;;;;;21.83;15.35;;;14.40;99.90;;;13.71;100.00;96908.31;6100823;23;20367;-78
2023/05/22 01:20:47;;;;;;;26.38;16.38;;;14.40;99.90;;;13.67;100.00;96914.50;6100053;23;20374;-78
2023/05/22 01:23:59;;;;;;;19.88;14.52;;;14.30;99.90;;;13.67;100.00;96919.81;6099917;23;20386;-78
2023/05/22 01:26:50;;;;;;;22.23;14.63;;;14.30;99.90;;;13.65;100.00;96917.44;6086464;23;20414;-78
2023/05/22 01:29:43;;;;;;;20.38;14.15;;;14.30;99.90;;;13.63;100.00;96929.41;6099989;23;20707;-77
2023/05/22 01:32:15;;;;;;;24.58;15.73;;;14.30;99.90;;;13.59;100.00;96921.22;6085848;23;20383;-77
2023/05/22 01:34:46;;;;;;;21.45;14.55;;;14.20;99.90;;;13.57;100.00;96924.16;6100388;23;20367;-78
2023/05/22 01:37:13;;;;;;;21.15;14.88;;;14.20;99.90;;;13.55;100.00;96928.16;6099885;23;20438;-78
2023/05/22 01:39:40;;;;;;;24.97;15.77;;;14.20;99.90;;;13.55;100.00;96922.84;6099532;23;20445;-78
2023/05/22 01:42:06;;;;;;;19.17;14.43;;;14.20;99.90;;;13.52;100.00;96932.19;6097415;23;20727;-78
2023/05/22 01:44:32;;;;;;;22.63;15.10;;;14.20;99.90;;;13.48;100.00;96925.84;6097066;23;20410;-77
2023/05/22 01:47:03;;;;;;;20.45;14.68;;;14.10;99.90;;;13.46;100.00;96925.31;6097012;23;21018;-77
2023/05/22 01:49:31;;;;;;;23.35;15.82;;;14.10;99.90;;;13.45;100.00;96925.63;6096632;23;20367;-77
2023/05/22 01:52:08;;;;;;;23.77;15.35;;;14.10;99.90;;;13.42;100.00;96936.78;6096452;23;20367;-77
2023/05/22 01:54:41;;;;;;;21.97;15.13;;;14.10;99.90;;;13.40;100.00;96934.41;6096599;23;20477;-77
2023/05/22 01:57:15;;;;;;;20.98;14.48;;;14.10;99.90;;;13.41;100.00;96930.69;6073255;23;20374;-77
2023/05/22 01:59:47;;;;;;;23.23;15.93;;;14.10;99.90;;;13.44;100.00;96938.13;6099724;23;20449;-77
2023/05/22 02:02:16;;;;;;;23.42;15.15;;;14.10;99.90;;;13.40;100.00;96930.97;6099364;23;20389;-77
2023/05/22 02:04:48;;;;;;;22.10;15.02;;;14.10;99.90;;;13.39;100.00;96940.00;6099615;23;20367;-77
2023/05/22 02:07:18;;;;;;;21.63;15.20;;;14.00;99.90;;;13.37;100.00;96939.50;6099325;23;20406;-77
2023/05/22 02:09:47;;;;;;;20.90;14.93;;;14.00;99.90;;;13.34;100.00;96932.88;6099550;23;20464;-78
2023/05/22 02:12:13;;;;;;;23.88;14.98;;;14.00;99.90;;;13.33;100.00;96935.81;6097441;23;20845;-76
2023/05/22 02:14:41;;;;;;;21.63;14.10;;;14.00;99.90;;;13.32;100.00;96935.00;6097142;23;20386;-76
2023/05/22 02:17:07;;;;;;;24.43;14.73;;;14.00;99.90;;;13.30;100.00;96942.50;6096729;23;20501;-76
2023/05/22 02:19:33;;;;;;;22.65;14.63;;;14.00;99.90;;;13.28;100.00;96935.84;6096871;23;20468;-76
2023/05/22 02:22:01;;;;;;;20.02;15.23;;;13.90;99.90;;;13.27;100.00;96936.94;6097051;23;20461;-77
2023/05/22 02:24:28;;;;;;;30.02;15.63;;;13.90;99.90;;;13.27;100.00;96936.94;6071266;23;20707;-77
2023/05/22 02:26:55;;;;;;;22.60;14.88;;;13.90;99.90;;;13.24;100.00;96935.59;6096949;23;20371;-77
2023/05/22 02:29:20;;;;;;;22.27;14.88;;;13.90;99.90;;;13.25;100.00;96939.84;6071073;23;20387;-77
2023/05/22 02:31:46;;;;;;;21.73;14.50;;;13.90;99.90;;;13.28;100.00;96931.34;6071366;23;20451;-77
2023/05/22 02:34:12;;;;;;;22.53;15.17;;;13.90;99.90;;;13.30;100.00;96931.88;6096673;23;20688;-77
2023/05/22 02:36:39;;;;;;;26.70;14.52;;;14.00;99.90;;;13.38;100.00;96931.22;6096062;23;20460;-77
2023/05/22 02:39:07;;;;;;;20.60;14.45;;;14.00;99.90;;;13.37;100.00;96929.66;6096754;23;20370;-78
2023/05/22 02:41:33;;;;;;;22.60;15.38;;;14.00;99.90;;;13.40;100.00;96925.63;6096351;23;20398;-77
2023/05/22 02:43:59;;;;;;;20.08;14.50;;;14.10;99.90;;;13.40;100.00;96930.97;6096290;23;20854;-77
2023/05/22 02:46:25;;;;;;;21.95;14.45;;;14.10;99.90;;;13.43;100.00;96923.22;6096584;23;20905;-78
2023/05/22 02:48:51;;;;;;;19.08;14.98;;;14.10;99.90;;;13.45;100.00;96923.75;6096436;23;20378;-77
2023/05/22 02:51:16;;;;;;;24.40;15.55;;;14.10;99.90;;;13.43;100.00;96925.88;6071255;23;20389;-77
2023/05/22 02:53:42;;;;;;;22.77;14.73;;;14.10;99.90;;;13.43;100.00;96928.53;6096029;23;20711;-77
2023/05/22 02:56:10;;;;;;;20.83;14.93;;;14.10;99.90;;;13.44;100.00;96927.47;6095814;23;20377;-77
2023/05/22 02:58:36;;;;;;;24.08;15.13;;;14.00;99.90;;;13.42;100.00;96923.50;6095929;23;20397;-77
2023/05/22 03:01:05;;;;;;;20.70;14.93;;;14.00;99.90;;;13.41;100.00;96925.38;6096024;23;20839;-77
2023/05/22 03:03:32;;;;;;;20.88;15.07;;;14.10;99.90;;;13.40;100.00;96925.63;6095393;23;20386;-77
2023/05/22 03:06:00;;;;;;;19.85;14.73;;;14.10;99.90;;;13.41;100.00;96925.38;6096224;23;20437;-78
2023/05/22 03:08:27;;;;;;;22.17;15.43;;;14.10;99.90;;;13.41;100.00;96936.00;6095792;23;20422;-77
2023/05/22 03:10:53;;;;;;;22.05;14.98;;;14.10;99.90;;;13.43;100.00;96939.19;6096177;23;20621;-77
2023/05/22 03:13:20;;;;;;;24.63;15.13;;;14.10;99.90;;;13.44;100.00;96940.78;6069965;23;20378;-77
2023/05/22 03:15:46;;;;;;;20.17;14.57;;;14.10;99.90;;;13.41;100.00;96929.88;6096261;23;20374;-78
2023/05/22 03:18:12;;;;;;;19.35;14.38;;;14.10;99.90;;;13.48;100.00;96941.78;6096680;23;20462;-78
2023/05/22 03:20:38;;;;;;;20.17;14.50;;;14.10;99.90;;;13.48;100.00;96938.34;6096223;23;20429;-77
2023/05/22 03:23:05;;;;;;;18.53;14.20;;;14.10;99.90;;;13.49;100.00;96938.06;6095941;23;20890;-77
2023/05/22 03:25:31;;;;;;;18.20;13.40;;;14.10;99.90;;;13.55;100.00;96938.78;6096617;23;20429;-77
2023/05/22 03:27:57;;;;;;;20.80;14.57;;;14.20;99.90;;;13.59;100.00;96937.19;6096718;23;20371;-78
2023/05/22 03:30:24;;;;;;;21.77;13.53;;;14.20;99.90;;;13.62;100.00;96941.91;6096769;23;20453;-77
2023/05/22 03:32:51;;;;;;;20.95;14.40;;;14.30;99.90;;;13.67;100.00;96941.88;6096259;23;20371;-77
2023/05/22 03:35:18;;;;;;;24.98;14.23;;;14.30;99.90;;;13.71;100.00;96947.41;6096223;23;20374;-77
2023/05/22 03:37:45;;;;;;;18.90;13.60;;;14.30;99.90;;;13.72;100.00;96951.66;6096396;23;20370;-76
2023/05/22 03:40:11;;;;;;;19.05;13.98;;;14.40;99.90;;;13.76;100.00;96947.34;6071749;23;20386;-77
2023/05/22 03:42:37;;;;;;;21.75;14.68;;;14.40;99.90;;;13.77;100.00;96949.75;6096245;23;20870;-77
2023/05/22 03:45:05;;;;;;;21.30;14.18;;;14.40;99.90;;;13.84;100.00;96952.88;6070581;23;20842;-77
2023/05/22 03:47:32;;;;;;;20.42;13.80;;;14.50;99.90;;;13.88;100.00;96953.91;6096832;23;20378;-77
2023/05/22 03:49:58;;;;;;;21.70;14.80;;;14.50;99.90;;;13.90;100.00;96954.41;6067865;23;20378;-78
2023/05/22 03:52:24;;;;;;;24.25;13.80;;;14.50;99.90;;;13.94;100.00;96959.94;6091831;23;20359;-78
2023/05/22 03:54:50;;;;;;;20.58;15.15;;;14.60;99.90;;;13.95;100.00;96958.88;6096627;23;20375;-77
2023/05/22 03:57:18;;;;;;;19.73;14.80;;;14.60;99.90;;;13.99;100.00;96962.56;6095425;23;20374;-77
2023/05/22 03:59:45;;;;;;;23.42;14.93;;;14.60;99.90;;;14.00;100.00;96964.13;6095737;23;20381;-77
2023/05/22 04:02:11;;;;;;;20.38;14.60;;;14.60;99.90;;;14.00;100.00;96952.69;6095209;23;20925;-76
2023/05/22 04:04:39;;;;;;;23.35;15.25;;;14.60;99.90;;;14.01;100.00;96959.63;6091716;23;20374;-75
2023/05/22 04:07:07;;;;;;;19.70;14.10;;;14.60;99.90;;;14.00;100.00;96955.38;6092335;23;20374;-75
2023/05/22 04:09:35;;;;;;;18.65;14.57;;;14.60;99.90;;;13.97;100.00;96969.25;6093692;23;20374;-74
2023/05/22 04:12:01;;;;;;;21.75;13.93;;;14.50;99.90;;;13.99;100.00;96965.22;6093092;23;20382;-74
2023/05/22 04:14:27;;;;;;;21.85;15.23;;;14.60;99.90;;;14.02;100.00;96969.19;6093438;23;20367;-74
2023/05/22 04:16:53;;;;;;;22.80;15.00;;;14.60;99.90;;;14.00;100.00;96974.78;6093865;23;20370;-74
2023/05/22 04:19:19;;;;;;;22.48;15.15;;;14.60;99.90;;;13.96;100.00;96973.78;6093362;23;20377;-73
2023/05/22 04:21:47;;;;;;;19.27;14.82;;;14.60;99.90;;;13.95;100.00;96970.31;6091270;23;20481;-74
2023/05/22 04:24:13;;;;;;;24.33;14.90;;;14.60;99.90;;;13.87;100.00;96973.59;6091247;23;20422;-75
2023/05/22 04:26:39;;;;;;;21.17;15.05;;;14.50;99.90;;;13.87;100.00;96976.25;6093174;23;20370;-73
2023/05/22 04:29:09;;;;;;;20.85;15.20;;;14.50;99.90;;;13.86;100.00;96973.88;6094420;23;20385;-76
2023/05/22 04:31:35;;;;;;;22.67;15.45;;;14.50;99.90;;;13.83;100.00;96977.13;6097812;23;20374;-77
2023/05/22 04:34:00;;;;;;;21.83;15.40;;;14.40;99.90;;;13.84;100.00;96981.34;6098660;23;20461;-78
2023/05/22 04:36:27;;;;;;;20.67;14.98;;;14.40;99.90;;;13.88;100.00;96977.06;6098096;23;20378;-78
2023/05/22 04:38:55;;;;;;;20.23;15.13;;;14.50;99.90;;;13.94;100.00;96973.25;6098426;23;20460;-77
2023/05/22 04:41:25;;;;;;;24.88;15.27;;;14.60;99.90;;;14.01;100.00;96984.34;6097159;23;20445;-77
2023/05/22 04:43:51;;;;;;;18.48;13.85;;;14.60;99.90;;;14.11;100.00;96983.47;6097635;23;20386;-77
2023/05/22 04:46:18;;;;;;;20.83;14.27;;;14.70;99.90;;;14.19;100.00;96983.63;6097708;23;20378;-77
2023/05/22 04:48:44;;;;;;;24.85;15.77;;;14.80;99.90;;;14.24;100.00;96982.78;6097838;23;20375;-76
2023/05/22 04:51:10;;;;;;;22.27;15.77;;;14.80;99.90;;;14.30;100.00;96987.75;6072546;23;20382;-76
2023/05/22 04:53:37;;;;;;;20.45;15.20;;;14.90;99.90;;;14.40;100.00;96983.41;6096848;23;20395;-77
2023/05/22 04:56:06;;;;;;;19.25;14.18;;;15.00;99.90;;;14.49;100.00;96984.38;6097670;23;20374;-77
2023/05/22 04:58:31;;;;;;;22.60;14.52;;;15.10;99.90;;;14.56;100.00;96982.94;6071766;23;20390;-77
2023/05/22 05:00:57;;;;;;;19.35;14.57;;;15.20;99.90;;;14.63;100.00;96986.06;6097969;23;20374;-77
2023/05/22 05:03:27;;;;;;;20.80;14.93;;;15.30;99.90;;;14.71;100.00;96989.97;6097563;23;20714;-76
2023/05/22 05:05:53;;;;;;;22.38;14.68;;;15.30;99.90;;;14.79;100.00;96985.84;6097441;23;20375;-77
2023/05/22 05:08:19;;;;;;;24.15;15.60;;;15.40;99.90;;;14.87;100.00;96988.69;6098272;23;20370;-77
2023/05/22 05:10:45;;;;;;;23.23;14.98;;;15.50;99.90;;;14.95;100.00;96982.69;6097843;23;20406;-77
2023/05/22 05:13:12;;;;;;;20.33;14.98;;;15.50;99.90;;;15.04;100.00;96978.28;6070932;23;20827;-77
2023/05/22 05:15:38;;;;;;;19.97;14.83;;;15.60;99.90;;;15.17;100.00;96981.31;6096297;23;20766;-77
2023/05/22 05:18:04;;;;;;;27.20;17.60;;;15.80;99.90;;;15.27;100.00;96991.81;6097460;23;20371;-78
2023/05/22 05:20:30;;;;;;;36.22;19.23;;;15.80;99.90;;;15.35;100.00;96986.59;6098667;23;20425;-77
2023/05/22 05:22:56;;;;;;;34.08;20.27;;;16.00;99.90;;;15.46;100.00;96984.59;6098708;23;20382;-77
2023/05/22 05:25:22;;;;;;;40.92;21.92;;;16.00;99.90;;;15.58;100.00;96981.47;6099577;23;20402;-78
2023/05/22 05:27:48;;;;;;;38.08;22.00;;;16.20;99.90;;;15.69;100.00;96977.56;6095324;23;20378;-78
2023/05/22 05:30:15;;;;;;;36.83;21.13;;;16.30;99.90;;;15.80;100.00;96976.28;6096334;23;20461;-78
2023/05/22 05:32:41;;;;;;;36.80;21.08;;;16.40;99.90;;;15.91;100.00;96982.25;6069341;23;20378;-77
2023/05/22 05:35:08;;;;;;;33.63;21.10;;;16.50;99.90;;;16.03;100.00;96979.88;6095380;23;20434;-77
2023/05/22 05:37:34;;;;;;;33.58;19.90;;;16.60;99.90;;;16.15;100.00;96986.31;6095423;23;20371;-77
2023/05/22 05:40:00;;;;;;;32.72;19.73;;;16.70;99.90;;;16.24;100.00;96984.53;6095157;23;20402;-77
2023/05/22 05:42:26;;;;;;;29.33;20.23;;;16.80;99.90;;;16.33;100.00;96991.84;6095302;23;20878;-77
2023/05/22 05:44:52;;;;;;;40.63;20.45;;;16.90;99.90;;;16.37;100.00;96988.31;6071011;23;20476;-77
2023/05/22 05:47:22;;;;;;;32.33;19.58;;;17.00;99.90;;;16.39;100.00;96980.75;6097059;23;20366;-78
2023/05/22 05:49:48;;;;;;;28.40;17.00;;;17.00;99.90;;;16.41;100.00;96983.94;6097737;23;20446;-78
2023/05/22 05:52:14;;;;;;;27.48;17.00;;;17.00;99.90;;;16.40;100.00;96992.25;6098186;23;20857;-78
2023/05/22 05:54:45;;;;;;;28.05;17.23;;;17.00;99.90;;;16.39;100.00;96991.44;6092618;23;20921;-77
2023/05/22 05:57:11;;;;;;;27.58;17.33;;;17.00;99.90;;;16.43;100.00;96995.13;6093701;23;20375;-77
2023/05/22 05:59:37;;;;;;;23.58;14.93;;;17.00;99.90;;;16.47;100.00;96995.31;6096843;23;20441;-77
2023/05/22 06:02:03;;;;;;;25.65;15.32;;;17.10;99.90;;;16.53;100.00;96996.81;6097770;23;20472;-78
2023/05/22 06:04:30;;;;;;;20.73;14.50;;;17.10;99.90;;;16.67;100.00;97002.16;6098798;23;20380;-78
2023/05/22 06:06:56;;;;;;;20.52;13.82;;;17.20;99.90;;;16.73;100.00;96999.09;6107519;23;20371;-78
2023/05/22 06:09:22;;;;;;;22.38;13.43;;;17.30;99.90;;;16.83;100.00;97006.09;6110979;23;20398;-79
2023/05/22 06:11:48;;;;;;;20.70;13.43;;;17.40;99.90;;;16.95;100.00;97001.00;6108772;23;20374;-78
2023/05/22 06:14:13;;;;;;;22.10;14.35;;;17.50;99.90;;;17.08;100.00;97002.06;6109933;23;20390;-78
2023/05/22 06:16:40;;;;;;;21.05;13.48;;;17.60;99.90;;;17.20;100.00;97007.69;6084864;23;20448;-78
2023/05/22 06:19:06;;;;;;;20.40;13.90;;;17.70;99.90;;;17.26;100.00;97012.63;6108206;23;20496;-78
2023/05/22 06:21:33;;;;;;;21.30;14.25;;;17.80;99.90;;;17.34;100.00;97011.09;6094284;23;20370;-78
2023/05/22 06:23:59;;;;;;;20.45;13.80;;;17.90;99.90;;;17.37;100.00;97010.47;6093883;23;20739;-78
2023/05/22 06:26:25;;;;;;;17.58;13.35;;;17.90;99.90;;;17.40;100.00;97008.00;6092003;23;20489;-77
2023/05/22 06:28:52;;;;;;;19.80;14.00;;;18.00;99.90;;;17.48;100.00;97011.03;6100053;23;20374;-78
2023/05/22 06:31:19;;;;;;;20.58;14.45;;;18.00;99.90;;;17.54;100.00;97007.13;6100944;23;20756;-78
2023/05/22 06:33:45;;;;;;;19.08;13.52;;;18.10;99.90;;;17.59;100.00;97018.50;6095080;23;20450;-78
2023/05/22 06:36:10;;;;;;;28.43;14.60;;;18.10;99.90;;;17.65;100.00;97013.88;6102285;23;20449;-78
2023/05/22 06:38:38;;;;;;;23.87;15.40;;;18.20;99.90;;;17.72;100.00;97015.03;6102845;23;20374;-78
2023/05/22 06:41:04;;;;;;;19.60;15.40;;;18.30;99.90;;;17.73;100.00;97018.50;6102567;23;20371;-78
2023/05/22 06:43:30;;;;;;;22.23;15.27;;;18.30;99.90;;;17.80;100.00;97010.81;6104401;23;20382;-77
2023/05/22 06:45:56;;;;;;;20.60;14.55;;;18.30;99.90;;;17.88;100.00;97012.75;6099986;23;20375;-77
2023/05/22 06:48:22;;;;;;;20.35;14.93;;;18.40;99.90;;;17.97;100.00;97018.94;6100851;23;20402;-77
2023/05/22 06:50:48;;;;;;;25.80;15.63;;;18.50;99.90;;;18.07;100.00;97009.84;6075960;23;20433;-78
2023/05/22 06:53:14;;;;;;;23.73;14.70;;;18.60;99.90;;;18.10;100.00;97015.41;6101760;23;20370;-77
2023/05/22 06:55:41;;;;;;;21.90;14.70;;;18.60;99.90;;;18.15;100.00;97017.94;6100427;23;20406;-77
2023/05/22 06:58:07;;;;;;;21.27;14.57;;;18.70;99.90;;;18.26;100.00;97017.66;6104753;23;20371;-78
2023/05/22 07:00:33;;;;;;;18.23;13.98;;;18.80;99.90;;;18.35;100.00;97011.22;6108081;23;20401;-77
2023/05/22 07:02:59;;;;;;;22.23;14.45;;;18.90;99.90;;;18.49;100.00;97019.19;6103243;23;20453;-78
2023/05/22 07:05:25;;;;;;;19.63;14.03;;;19.00;99.90;;;18.53;100.00;97023.59;6102896;23;20378;-78
2023/05/22 07:07:51;;;;;;;19.87;13.50;;;19.00;99.90;;;18.68;100.00;97019.72;6101392;23;20381;-78
2023/05/22 07:10:17;;;;;;;24.47;13.57;;;19.20;99.90;;;18.84;100.00;97022.75;6101919;23;20421;-78
2023/05/22 07:12:44;;;;;;;19.27;13.87;;;19.30;99.90;;;19.07;100.00;97026.09;6104203;23;20422;-77
2023/05/22 07:15:13;;;;;;;19.15;13.73;;;19.50;99.90;;;19.09;100.00;97022.00;6101369;23;20438;-78
2023/05/22 07:17:40;;;;;;;18.77;13.43;;;19.60;99.90;;;19.22;100.00;97026.44;6100405;23;20370;-78
2023/05/22 07:20:08;;;;;;;21.60;13.68;;;19.70;99.90;;;19.40;100.00;97029.91;6098797;23;20375;-77
2023/05/22 07:22:34;;;;;;;18.45;12.70;;;19.90;99.90;;;19.61;100.00;97027.41;6098029;23;20394;-78
2023/05/22 07:25:00;;;;;;;24.92;13.30;;;20.10;99.90;;;19.74;100.00;97025.66;6101237;23;20382;-78
2023/05/22 07:27:26;;;;;;;22.17;13.60;;;20.20;99.90;;;19.89;100.00;97017.88;6102581;23;20408;-78
2023/05/22 07:29:53;;;;;;;18.67;13.00;;;20.40;99.90;;;20.10;100.00;97021.44;6100501;23;20398;-77
2023/05/22 07:32:19;;;;;;;20.27;13.18;;;20.60;99.90;;;20.21;100.00;97016.53;6099834;23;20687;-77
2023/05/22 07:34:45;;;;;;;17.45;12.52;;;20.70;99.90;;;20.37;100.00;97014.13;6097289;23;20377;-77
2023/05/22 07:37:12;;;;;;;19.02;12.68;;;20.80;99.90;;;20.62;100.00;97017.78;6097144;23;20471;-77
2023/05/22 07:39:38;;;;;;;22.92;13.45;;;21.10;99.90;;;20.88;100.00;97018.44;6098044;23;20378;-76
2023/05/22 07:42:05;;;;;;;17.93;12.40;;;21.30;99.90;;;21.07;100.00;97021.47;6094945;23;20422;-77
2023/05/22 07:44:32;;;;;;;18.25;11.75;;;21.50;99.90;;;21.18;100.00;97019.22;6070149;23;20379;-77
2023/05/22 07:46:59;;;;;;;17.17;12.02;;;21.60;99.90;;;21.29;100.00;97017.69;6095277;23;20379;-78
2023/05/22 07:49:25;;;;;;;18.38;11.85;;;21.80;99.90;;;21.39;100.00;97019.19;6097243;23;20402;-78
2023/05/22 07:51:51;;;;;;;16.58;12.00;;;21.90;99.90;;;21.40;100.00;97015.41;6097279;23;20370;-78
2023/05/22 07:54:17;;;;;;;16.17;11.40;;;21.90;99.40;;;21.44;100.00;97017.09;6095976;23;20378;-79
2023/05/22 07:56:44;;;;;;;17.75;11.77;;;21.90;97.60;;;21.52;100.00;97015.44;6097959;23;20371;-77
2023/05/22 07:59:10;;;;;;;16.52;11.35;;;22.00;98.20;;;21.67;100.00;97019.44;6097321;23;20421;-77
2023/05/22 08:01:36;;;;;;;14.68;10.32;;;22.00;97.10;;;21.82;100.00;97016.91;6073104;23;20386;-78
2023/05/22 08:04:04;;;;;;;16.00;10.68;;;22.20;96.00;;;21.86;100.00;97023.22;6098138;23;20394;-77
2023/05/22 08:06:31;;;;;;;15.23;10.40;;;22.30;94.20;;;22.26;100.00;97023.44;6098223;23;20374;-77
2023/05/22 08:08:58;;;;;;;15.23;11.20;;;22.60;96.10;;;22.52;100.00;97023.13;6097946;23;20410;-78
2023/05/22 08:11:25;;;;;;;14.00;10.57;;;22.90;96.60;;;22.83;100.00;97019.88;6098278;23;20477;-80
2023/05/22 08:13:50;;;;;;;14.82;10.75;;;23.10;95.70;;;22.95;100.00;97021.78;6098708;23;20366;-78
2023/05/22 08:16:16;;;;;;;15.02;9.93;;;23.40;94.10;;;22.99;91.82;97017.28;6098651;23;20454;-78
2023/05/22 08:18:42;;;;;;;18.08;10.60;;;23.40;90.50;;;23.03;96.95;97023.56;6098612;23;20371;-78
2023/05/22 08:21:10;;;;;;;16.80;10.30;;;23.50;92.10;;;23.32;96.63;97017.88;6098301;23;20703;-77
2023/05/22 08:23:37;;;;;;;16.35;10.25;;;23.60;92.20;;;23.26;92.59;97021.16;6097504;23;20465;-78
2023/05/22 08:26:07;;;;;;;15.82;10.27;;;23.70;90.70;;;23.29;96.48;97023.19;6097670;23;20381;-76
2023/05/22 08:28:33;;;;;;;19.43;10.97;;;23.70;91.70;;;23.12;87.30;97022.31;6097264;23;20374;-78
2023/05/22 08:30:59;;;;;;;14.50;10.67;;;23.60;87.00;;;23.28;87.77;97019.69;6096140;23;20370;-77
2023/05/22 08:33:25;;;;;;;16.98;10.40;;;23.70;87.50;;;23.38;90.59;97023.84;6096079;23;20370;-76
2023/05/22 08:35:51;;;;;;;19.65;10.90;;;23.80;89.40;;;23.48;95.78;97016.03;6096858;23;20378;-77
2023/05/22 08:38:18;;;;;;;19.50;10.57;;;23.90;91.10;;;23.56;95.66;97019.72;6095189;23;20397;-76
2023/05/22 08:40:49;;;;;;;14.13;10.35;;;24.00;91.10;;;23.47;80.38;97013.66;6096087;23;20381;-76
2023/05/22 08:43:20;;;;;;;16.05;10.40;;;23.90;82.00;;;23.36;79.13;97018.78;6095303;23;20495;-77
2023/05/22 08:45:51;;;;;;;17.92;10.13;;;23.80;80.70;;;23.41;83.39;97015.03;6095766;23;20371;-77
2023/05/22 08:48:19;;;;;;;19.58;10.95;;;23.80;83.90;;;23.47;81.23;97013.66;6096239;23;20377;-77
2023/05/22 08:50:55;;;;;;;15.50;10.45;;;23.80;82.40;;;23.79;84.06;97012.66;6096069;23;20374;-77
2023/05/22 08:53:26;;;;;;;21.20;9.98;;;24.10;84.50;;;23.99;84.34;97010.06;6095342;23;20760;-76
2023/05/22 08:55:53;;;;;;;15.68;10.23;;;24.40;84.60;;;23.97;81.07;97015.84;6094939;23;20803;-77
2023/05/22 08:58:20;;;;;;;17.80;10.40;;;24.40;81.30;;;23.56;75.56;97016.25;6095534;23;20382;-77
2023/05/22 09:00:47;;;;;;;15.68;10.55;;;24.10;76.90;;;23.45;75.30;97018.63;6094847;23;20370;-76
2023/05/22 09:03:14;;;;;;;14.48;10.48;;;23.90;77.30;;;23.35;77.80;97021.81;6094692;23;20382;-77
2023/05/22 09:05:40;;;;;;;18.40;10.23;;;23.80;78.90;;;23.40;82.24;97022.34;6095134;23;20367;-77
2023/05/22 09:08:09;;;;;;;16.67;11.20;;;23.80;82.30;;;23.47;82.35;97013.66;6095068;23;20405;-76
2023/05/22 09:10:37;;;;;;;20.60;10.63;;;23.90;82.40;;;23.52;83.72;97018.84;6094493;23;20378;-77
2023/05/22 09:13:10;;;;;;;16.73;10.50;;;24.00;83.30;;;23.54;78.66;97022.78;6094677;23;20394;-77
2023/05/22 09:15:36;;;;;;;17.35;10.80;;;24.00;80.20;;;23.42;80.65;97013.91;6094946;23;20420;-76
2023/05/22 09:18:04;;;;;;;21.65;11.20;;;23.90;81.20;;;23.32;81.75;97017.88;6094994;23;20914;-77
2023/05/22 09:20:33;;;;;;;18.67;10.85;;;23.80;81.90;;;23.35;79.02;97027.22;6095244;23;20371;-77
2023/05/22 09:23:01;;;;;;;19.63;10.95;;;23.80;80.00;;;23.38;85.92;97021.88;6094712;23;20394;-77
2023/05/22 09:25:27;;;;;;;19.02;10.50;;;23.80;84.90;;;23.40;83.20;97022.34;6094892;23;20374;-77
2023/05/22 09:27:54;;;;;;;33.38;12.40;;;23.90;82.70;;;23.40;86.61;97022.34;6095956;23;20381;-77
2023/05/22 09:30:20;;;;;;;17.85;11.82;;;23.90;85.00;;;23.46;85.87;97023.66;6095890;23;20488;-76
2023/05/22 09:32:48;;;;;;;19.90;11.38;;;23.90;84.50;;;23.63;91.77;97019.13;6095518;23;20373;-77
2023/05/22 09:35:15;;;;;;;31.27;13.70;;;24.10;88.60;;;23.59;87.49;97018.28;6095871;23;21008;-74
2023/05/22 09:37:41;;;;;;;22.13;11.75;;;24.10;85.90;;;23.77;87.94;97025.72;6095998;23;20457;-76
2023/05/22 09:40:10;;;;;;;19.90;11.50;;;24.20;85.90;;;23.95;88.12;97020.00;6095411;23;20457;-76
2023/05/22 09:42:36;;;;;;;20.95;11.50;;;24.40;85.40;;;24.07;91.21;97011.81;6094712;23;20386;-76
2023/05/22 09:45:06;;;;;;;16.63;11.45;;;24.50;87.50;;;24.13;88.65;97010.44;6095271;23;20378;-76
2023/05/22 09:47:35;;;;;;;33.28;13.15;;;24.60;85.90;;;24.11;91.42;97010.00;6095623;23;20375;-76
2023/05/22 09:50:05;;;;;;;21.77;12.25;;;24.60;87.30;;;24.01;88.84;97014.00;6095410;23;20466;-76
2023/05/22 09:52:33;;;;;;;18.45;11.05;;;24.50;85.90;;;24.12;88.80;97006.97;6069435;23;20445;-76
2023/05/22 09:55:03;;;;;;;21.40;12.40;;;24.60;85.40;;;24.20;94.53;97014.16;6095230;23;20406;-76
2023/05/22 09:57:34;;;;;;;18.50;11.20;;;24.70;89.10;;;24.34;90.02;97005.59;6095492;23;20669;-76
2023/05/22 10:00:03;;;;;;;17.67;12.15;;;24.90;87.20;;;24.35;90.53;97007.16;6069166;23;20837;-77
2023/05/22 10:02:31;;;;;;;22.65;11.52;;;24.80;86.80;;;24.37;91.92;97012.22;6094644;23;20393;-77